Time;durP1;ratioP1;P1;durP2;ratioP2;P2;SDS_P1;SDS_P2;PMS_P1;PMS_P2;Temp;Humidity;BMP_temperature;BMP_pressure;BME280_temperature;BME280_humidity;BME280_pressure;Samples;Min_cycle;Max_cycle;Signal;HPM_P1;HPM_P2
2021/11/28 00:00:31;;;;;;;68.63;30.93;;;0.80;99.90;;;;;;4440495;32;20196;-64
2021/11/28 00:03:01;;;;;;;71.60;30.97;;;0.80;99.90;;;;;;4442083;32;20178;-64
2021/11/28 00:05:28;;;;;;;73.83;30.87;;;0.70;99.90;;;;;;4440535;32;20225;-64
2021/11/28 00:15:57;;;;;;;70.90;30.53;;;0.70;99.90;;;;;;4440245;32;20612;-64
2021/11/28 00:18:24;;;;;;;69.77;30.27;;;0.70;99.90;;;;;;4440922;32;20648;-65
2021/11/28 00:20:51;;;;;;;67.27;30.83;;;0.70;99.90;;;;;;4437592;32;20185;-65
2021/11/28 00:23:17;;;;;;;64.13;29.93;;;0.70;99.90;;;;;;4432255;32;20186;-65
2021/11/28 00:28:51;;;;;;;69.60;31.40;;;0.70;99.90;;;;;;4792798;27;20178;-67
2021/11/28 00:31:18;;;;;;;71.20;30.13;;;0.70;99.90;;;;;;4309950;33;20223;-65
2021/11/28 00:33:45;;;;;;;69.20;30.60;;;0.70;99.90;;;;;;4318497;33;20232;-65
2021/11/28 00:36:12;;;;;;;69.40;31.00;;;0.80;99.90;;;;;;4320189;33;20223;-65
2021/11/28 00:38:39;;;;;;;66.40;29.83;;;0.80;99.90;;;;;;4311449;33;20542;-65
2021/11/28 00:41:06;;;;;;;70.30;30.77;;;0.90;99.90;;;;;;4335381;33;20211;-65
2021/11/28 00:43:33;;;;;;;66.83;31.20;;;0.90;99.90;;;;;;4336377;33;20227;-65
2021/11/28 00:46:00;;;;;;;71.70;31.53;;;1.00;99.90;;;;;;4322398;33;20256;-65
2021/11/28 00:48:30;;;;;;;70.27;30.13;;;1.10;99.90;;;;;;4323301;33;20224;-65
2021/11/28 00:53:45;;;;;;;65.73;30.77;;;1.20;99.90;;;;;;4329231;33;20149;-65
2021/11/28 00:56:12;;;;;;;67.40;31.17;;;1.30;99.90;;;;;;4334454;33;20180;-65
2021/11/28 00:58:39;;;;;;;78.17;32.63;;;1.30;99.90;;;;;;4333517;33;20239;-65
2021/11/28 01:01:07;;;;;;;69.97;31.50;;;1.30;99.90;;;;;;4320744;33;20270;-68
2021/11/28 01:03:34;;;;;;;66.50;30.40;;;1.30;99.90;;;;;;4323346;33;20252;-67
2021/11/28 01:06:01;;;;;;;64.60;30.70;;;1.40;99.90;;;;;;4336631;33;20168;-65
2021/11/28 01:08:29;;;;;;;64.27;30.37;;;1.50;99.90;;;;;;4335710;33;20180;-65
2021/11/28 01:10:56;;;;;;;72.17;31.13;;;1.50;99.90;;;;;;4322612;33;20399;-65
2021/11/28 01:13:23;;;;;;;62.10;29.77;;;1.70;99.90;;;;;;4323601;33;20200;-65
2021/11/28 01:15:50;;;;;;;64.23;30.17;;;1.80;99.90;;;;;;4334475;33;20235;-65
2021/11/28 01:18:17;;;;;;;61.03;29.53;;;1.80;99.90;;;;;;4319672;33;20551;-65
2021/11/28 01:20:45;;;;;;;63.47;30.13;;;1.80;99.90;;;;;;4334725;33;20420;-65
2021/11/28 01:23:12;;;;;;;61.50;28.73;;;1.90;99.90;;;;;;4321018;33;20426;-65
2021/11/28 01:25:39;;;;;;;64.43;30.10;;;1.90;99.90;;;;;;4320435;33;20443;-65
2021/11/28 01:28:06;;;;;;;59.70;29.00;;;2.00;99.90;;;;;;4319247;33;20286;-65
2021/11/28 01:30:33;;;;;;;56.33;26.40;;;2.00;99.90;;;;;;4320863;33;20181;-66
2021/11/28 01:33:00;;;;;;;59.20;27.63;;;2.00;99.90;;;;;;4319413;33;20172;-65
2021/11/28 01:35:27;;;;;;;59.50;27.90;;;2.10;99.90;;;;;;4320372;33;20199;-65
2021/11/28 01:37:54;;;;;;;58.10;27.27;;;2.20;99.90;;;;;;4321004;33;20195;-65
2021/11/28 01:40:22;;;;;;;54.83;26.63;;;2.20;99.90;;;;;;4319219;33;20173;-65
2021/11/28 01:42:58;;;;;;;59.10;27.53;;;2.10;99.90;;;;;;4320460;33;20235;-65
2021/11/28 01:45:28;;;;;;;62.03;28.40;;;2.10;99.90;;;;;;4307733;33;20203;-65
2021/11/28 01:47:58;;;;;;;61.80;27.87;;;2.10;99.90;;;;;;4307068;33;20524;-65
2021/11/28 01:50:28;;;;;;;58.10;26.60;;;2.10;99.90;;;;;;4308119;33;20242;-65
2021/11/28 01:52:56;;;;;;;55.50;27.57;;;2.10;99.90;;;;;;4320630;33;20141;-65
2021/11/28 01:55:26;;;;;;;59.47;27.17;;;2.10;99.90;;;;;;4308580;33;20268;-65
2021/11/28 01:57:55;;;;;;;56.27;27.43;;;2.20;99.90;;;;;;4308248;33;20239;-65
2021/11/28 02:00:28;;;;;;;61.60;28.50;;;2.20;99.90;;;;;;4307308;33;20413;-65
2021/11/28 02:02:57;;;;;;;56.37;27.77;;;2.10;99.90;;;;;;4320199;33;20185;-65
2021/11/28 02:05:27;;;;;;;56.50;26.30;;;2.10;99.90;;;;;;4308362;33;20174;-65
2021/11/28 02:07:54;;;;;;;62.50;27.27;;;2.20;99.90;;;;;;4307517;33;20173;-65
2021/11/28 02:10:23;;;;;;;57.70;27.37;;;2.20;99.90;;;;;;4308748;33;20188;-65
2021/11/28 02:12:50;;;;;;;57.37;26.93;;;2.30;99.90;;;;;;4307678;33;20554;-65
2021/11/28 02:15:20;;;;;;;56.60;27.13;;;2.30;99.90;;;;;;4306332;33;20181;-67
2021/11/28 02:17:52;;;;;;;61.67;27.03;;;2.40;99.90;;;;;;4308239;33;20215;-65
2021/11/28 02:20:22;;;;;;;58.20;26.87;;;2.40;99.90;;;;;;4308085;33;20394;-65
2021/11/28 02:22:50;;;;;;;55.57;27.07;;;2.40;99.90;;;;;;4319773;33;20402;-65
2021/11/28 02:25:17;;;;;;;60.33;30.20;;;2.40;99.90;;;;;;4306784;33;20196;-65
2021/11/28 02:27:44;;;;;;;64.00;30.10;;;2.50;99.90;;;;;;4306581;33;20189;-65
2021/11/28 02:30:17;;;;;;;60.53;28.90;;;2.50;99.90;;;;;;4306460;33;20594;-65
2021/11/28 02:32:46;;;;;;;59.70;29.33;;;2.50;99.90;;;;;;4307357;33;20448;-65
2021/11/28 02:35:15;;;;;;;63.63;30.60;;;2.60;99.90;;;;;;4307744;33;20456;-66
2021/11/28 02:37:43;;;;;;;66.03;30.33;;;2.50;99.90;;;;;;4307884;33;20272;-65
2021/11/28 02:40:16;;;;;;;64.70;29.73;;;2.50;99.90;;;;;;4307705;33;20192;-65
2021/11/28 02:42:44;;;;;;;59.13;29.57;;;2.40;99.90;;;;;;4307096;33;20259;-65
2021/11/28 02:45:12;;;;;;;64.37;29.87;;;2.50;99.90;;;;;;4308003;33;20177;-65
2021/11/28 02:47:40;;;;;;;65.53;30.43;;;2.50;99.90;;;;;;4308051;33;20199;-65
2021/11/28 02:50:09;;;;;;;68.77;31.03;;;2.40;99.90;;;;;;4307787;33;20201;-65
2021/11/28 02:52:36;;;;;;;61.83;29.73;;;2.40;99.90;;;;;;4307454;33;20401;-65
2021/11/28 02:55:04;;;;;;;69.73;30.67;;;2.30;99.90;;;;;;4306367;33;20231;-65
2021/11/28 02:57:32;;;;;;;62.13;30.30;;;2.30;99.90;;;;;;4306466;33;20181;-65
2021/11/28 02:59:59;;;;;;;64.63;30.60;;;2.30;99.90;;;;;;4320547;33;20362;-65
2021/11/28 03:02:27;;;;;;;67.27;30.80;;;2.40;99.90;;;;;;4307301;33;20168;-65
2021/11/28 03:04:54;;;;;;;67.17;31.23;;;2.40;99.90;;;;;;4306420;33;20185;-65
2021/11/28 03:07:21;;;;;;;70.17;30.87;;;2.50;99.90;;;;;;4306159;33;20602;-65
2021/11/28 03:09:48;;;;;;;71.33;31.13;;;2.50;99.90;;;;;;4307003;33;20523;-65
2021/11/28 03:12:15;;;;;;;68.17;31.80;;;2.50;99.90;;;;;;4319804;33;20546;-65
2021/11/28 03:14:42;;;;;;;66.43;30.93;;;2.50;99.90;;;;;;4307575;33;20475;-65
2021/11/28 03:17:10;;;;;;;64.93;30.73;;;2.60;99.90;;;;;;4305829;33;20232;-65
2021/11/28 03:19:40;;;;;;;68.53;31.87;;;2.60;99.90;;;;;;4306661;33;20177;-65
2021/11/28 03:22:07;;;;;;;64.83;30.53;;;2.60;99.90;;;;;;4307051;33;20221;-65
2021/11/28 03:24:35;;;;;;;65.83;30.03;;;2.60;99.90;;;;;;4319439;33;20200;-65
2021/11/28 03:27:03;;;;;;;63.10;30.33;;;2.60;99.90;;;;;;4306373;33;20586;-65
2021/11/28 03:29:30;;;;;;;66.87;30.27;;;2.70;99.90;;;;;;4304956;33;20177;-65
2021/11/28 03:31:57;;;;;;;61.33;30.93;;;2.70;99.90;;;;;;4305350;33;20141;-65
2021/11/28 03:34:25;;;;;;;67.50;31.27;;;2.70;99.90;;;;;;4304137;33;20170;-65
2021/11/28 03:36:58;;;;;;;60.20;30.40;;;2.70;99.90;;;;;;4305258;33;20145;-65
2021/11/28 03:39:27;;;;;;;65.97;30.43;;;2.70;99.90;;;;;;4303760;33;20173;-65
2021/11/28 03:42:02;;;;;;;63.37;29.67;;;2.70;99.90;;;;;;4304691;33;20174;-65
2021/11/28 03:44:30;;;;;;;65.63;29.57;;;2.70;99.90;;;;;;4306406;33;20150;-65
2021/11/28 03:46:57;;;;;;;60.90;29.93;;;2.70;99.90;;;;;;4305717;33;20158;-65
2021/11/28 03:49:25;;;;;;;64.87;30.50;;;2.70;99.90;;;;;;4303176;33;20523;-65
2021/11/28 03:51:53;;;;;;;63.50;30.13;;;2.70;99.90;;;;;;4304544;33;20271;-65
2021/11/28 03:54:20;;;;;;;63.83;30.40;;;2.70;99.90;;;;;;4305225;33;20229;-65
2021/11/28 03:56:47;;;;;;;65.80;31.00;;;2.70;99.90;;;;;;4306058;33;20426;-65
2021/11/28 03:59:15;;;;;;;65.17;30.30;;;2.80;99.90;;;;;;4305856;33;20157;-65
2021/11/28 04:01:43;;;;;;;60.33;30.00;;;2.80;99.90;;;;;;4303425;33;20594;-65
2021/11/28 04:04:10;;;;;;;63.60;30.23;;;2.80;99.90;;;;;;4304246;33;20182;-65
2021/11/28 04:06:37;;;;;;;66.87;31.50;;;2.80;99.90;;;;;;4303621;33;20177;-65
2021/11/28 04:09:04;;;;;;;65.37;30.53;;;2.80;99.90;;;;;;4303049;33;20203;-65
2021/11/28 04:11:31;;;;;;;63.63;31.07;;;2.80;99.90;;;;;;4303038;33;20540;-65
2021/11/28 04:13:59;;;;;;;62.33;30.53;;;2.80;99.90;;;;;;4303937;33;20232;-65
2021/11/28 04:16:26;;;;;;;61.43;30.30;;;2.80;99.90;;;;;;4303967;33;20604;-65
2021/11/28 04:18:55;;;;;;;64.47;30.70;;;2.80;99.90;;;;;;4303258;33;20249;-65
2021/11/28 04:21:22;;;;;;;62.70;29.97;;;2.80;99.90;;;;;;4305257;33;20165;-66
2021/11/28 04:23:50;;;;;;;65.00;29.83;;;2.70;99.90;;;;;;4305963;33;20419;-65
2021/11/28 04:26:17;;;;;;;62.37;30.10;;;2.70;99.90;;;;;;4304207;33;20488;-65
2021/11/28 04:28:44;;;;;;;56.77;28.60;;;2.60;99.90;;;;;;4305183;33;20195;-65
2021/11/28 04:31:11;;;;;;;60.50;29.33;;;2.50;99.90;;;;;;4306913;33;20177;-65
2021/11/28 04:33:39;;;;;;;61.43;30.10;;;2.50;99.90;;;;;;4305866;33;20195;-65
2021/11/28 04:36:07;;;;;;;55.97;28.03;;;2.40;99.90;;;;;;4307546;33;20229;-66
2021/11/28 04:38:35;;;;;;;61.30;29.60;;;2.40;99.90;;;;;;4305866;33;20235;-65
2021/11/28 04:41:02;;;;;;;61.00;29.77;;;2.30;99.90;;;;;;4307031;33;20188;-65
2021/11/28 04:43:30;;;;;;;57.80;28.07;;;2.30;99.90;;;;;;4306217;33;20170;-65
2021/11/28 04:45:57;;;;;;;60.17;29.40;;;2.20;99.90;;;;;;4305473;33;20562;-65
2021/11/28 04:48:24;;;;;;;59.17;28.73;;;2.20;99.90;;;;;;4306755;33;20248;-65
2021/11/28 04:50:51;;;;;;;60.73;28.37;;;2.10;99.90;;;;;;4305310;33;20551;-65
2021/11/28 04:53:18;;;;;;;60.80;29.53;;;2.10;99.90;;;;;;4306168;33;20174;-65
2021/11/28 04:55:45;;;;;;;61.00;29.40;;;2.00;99.90;;;;;;4306832;33;20169;-65
2021/11/28 04:58:12;;;;;;;62.20;29.13;;;2.00;99.90;;;;;;4305237;33;20181;-65
2021/11/28 05:00:39;;;;;;;58.33;28.33;;;2.00;99.90;;;;;;4305802;33;20211;-65
2021/11/28 05:03:07;;;;;;;61.83;28.80;;;1.90;99.90;;;;;;4305619;33;20170;-65
2021/11/28 05:05:34;;;;;;;62.17;30.17;;;1.80;99.90;;;;;;4307273;33;20138;-65
2021/11/28 05:08:01;;;;;;;62.87;27.93;;;1.80;99.90;;;;;;4305114;33;20169;-65
2021/11/28 05:10:29;;;;;;;61.80;28.93;;;1.70;99.90;;;;;;4305348;33;20178;-65
2021/11/28 05:12:56;;;;;;;61.83;30.07;;;1.70;99.90;;;;;;4306653;33;20192;-65
2021/11/28 05:15:23;;;;;;;59.67;29.17;;;1.70;99.90;;;;;;4305012;33;20757;-65
2021/11/28 05:17:50;;;;;;;65.43;30.33;;;1.70;99.90;;;;;;4306620;33;20503;-65
2021/11/28 05:20:17;;;;;;;60.70;28.80;;;1.70;99.90;;;;;;4306235;33;20161;-65
2021/11/28 05:22:44;;;;;;;64.60;29.37;;;1.70;99.90;;;;;;4304877;33;20228;-65
2021/11/28 05:25:11;;;;;;;62.17;29.30;;;1.70;99.90;;;;;;4305656;33;20260;-65
2021/11/28 05:27:40;;;;;;;62.43;29.47;;;1.60;99.90;;;;;;4305349;33;20204;-65
2021/11/28 05:30:07;;;;;;;67.00;30.60;;;1.60;99.90;;;;;;4304788;33;20196;-65
2021/11/28 05:32:34;;;;;;;59.67;28.73;;;1.60;99.90;;;;;;4304686;33;20200;-65
2021/11/28 05:35:01;;;;;;;62.13;30.17;;;1.70;99.90;;;;;;4305202;33;20516;-65
2021/11/28 05:37:28;;;;;;;63.83;29.57;;;1.70;99.90;;;;;;4304987;33;20173;-65
2021/11/28 05:39:56;;;;;;;65.87;29.57;;;1.80;99.90;;;;;;4307307;33;20168;-65
2021/11/28 05:42:23;;;;;;;66.50;30.67;;;1.70;99.90;;;;;;4304510;33;20232;-65
2021/11/28 05:44:51;;;;;;;61.70;29.83;;;1.80;99.90;;;;;;4305264;33;20174;-65
2021/11/28 05:47:18;;;;;;;64.50;28.77;;;1.80;99.90;;;;;;4306257;33;20180;-65
2021/11/28 05:49:45;;;;;;;59.33;28.87;;;1.90;99.90;;;;;;4304582;33;20177;-65
2021/11/28 05:52:12;;;;;;;61.63;29.60;;;1.90;99.90;;;;;;4304461;33;20173;-65
2021/11/28 05:54:41;;;;;;;60.13;29.63;;;1.90;99.90;;;;;;4304487;33;20174;-65
2021/11/28 05:57:08;;;;;;;63.17;29.83;;;1.90;99.90;;;;;;4305826;33;20137;-65
2021/11/28 05:59:35;;;;;;;63.20;30.30;;;2.00;99.90;;;;;;4304819;33;20204;-65
2021/11/28 06:02:02;;;;;;;64.50;28.47;;;2.00;99.90;;;;;;4305294;33;20173;-65
2021/11/28 06:04:29;;;;;;;60.07;28.93;;;2.00;99.90;;;;;;4305669;33;20257;-65
2021/11/28 06:06:56;;;;;;;63.27;30.17;;;2.00;99.90;;;;;;4303864;33;20207;-65
2021/11/28 06:09:24;;;;;;;62.80;29.27;;;2.00;99.90;;;;;;4304750;33;20166;-65
2021/11/28 06:11:51;;;;;;;59.80;29.03;;;2.00;99.90;;;;;;4304076;33;20195;-65
2021/11/28 06:14:17;;;;;;;64.07;29.57;;;2.10;99.90;;;;;;4303889;33;20547;-65
2021/11/28 06:16:45;;;;;;;64.37;29.57;;;2.00;99.90;;;;;;4304028;33;20271;-65
2021/11/28 06:19:12;;;;;;;57.63;27.20;;;2.00;99.90;;;;;;4306157;33;20192;-65
2021/11/28 06:21:39;;;;;;;59.20;28.37;;;1.90;99.90;;;;;;4305260;33;20161;-65
2021/11/28 06:24:06;;;;;;;63.63;29.17;;;1.90;99.90;;;;;;4304969;33;20169;-65
2021/11/28 06:26:33;;;;;;;61.70;29.07;;;2.00;99.90;;;;;;4306463;33;20409;-66
2021/11/28 06:29:00;;;;;;;59.73;28.57;;;2.00;99.90;;;;;;4311881;33;20173;-65
2021/11/28 06:31:28;;;;;;;61.10;28.43;;;2.00;99.90;;;;;;4306685;33;20199;-65
2021/11/28 06:33:55;;;;;;;67.93;29.43;;;2.00;99.90;;;;;;4307674;33;20204;-65
2021/11/28 06:36:22;;;;;;;57.20;28.17;;;2.00;99.90;;;;;;4319769;33;20137;-65
2021/11/28 06:38:49;;;;;;;63.00;29.43;;;2.00;99.90;;;;;;4305685;33;20168;-65
2021/11/28 06:41:16;;;;;;;60.53;28.57;;;2.00;99.90;;;;;;4305841;33;20212;-65
2021/11/28 06:43:44;;;;;;;61.73;28.97;;;2.00;99.90;;;;;;4305745;33;20233;-65
2021/11/28 06:46:11;;;;;;;67.40;30.03;;;2.00;99.90;;;;;;4305858;33;20236;-65
2021/11/28 06:48:38;;;;;;;64.43;29.83;;;1.90;99.90;;;;;;4307588;33;20333;-65
2021/11/28 06:51:05;;;;;;;63.33;29.87;;;1.90;99.90;;;;;;4305193;33;20185;-65
2021/11/28 06:53:32;;;;;;;61.20;29.03;;;1.90;99.90;;;;;;4319003;33;20470;-65
2021/11/28 06:56:03;;;;;;;66.17;29.57;;;1.90;99.90;;;;;;4319296;33;20160;-65
2021/11/28 06:58:32;;;;;;;63.60;29.03;;;1.90;99.90;;;;;;4306320;33;20208;-65
2021/11/28 07:01:00;;;;;;;66.77;30.57;;;1.80;99.90;;;;;;4306399;33;20220;-65
2021/11/28 07:03:27;;;;;;;66.63;29.83;;;1.80;99.90;;;;;;4320055;33;20435;-65
2021/11/28 07:05:55;;;;;;;61.57;28.87;;;1.90;99.90;;;;;;4306311;33;20200;-65
2021/11/28 07:08:22;;;;;;;62.40;29.87;;;1.90;99.90;;;;;;4306144;33;20202;-65
2021/11/28 07:10:49;;;;;;;60.00;29.83;;;2.00;99.90;;;;;;4309346;33;20192;-65
2021/11/28 07:13:17;;;;;;;61.53;28.83;;;2.00;99.90;;;;;;4306676;33;20192;-66
2021/11/28 07:15:44;;;;;;;65.10;30.37;;;2.10;99.90;;;;;;4319005;33;20483;-66
2021/11/28 07:18:11;;;;;;;60.33;30.23;;;2.10;99.90;;;;;;4306564;33;20559;-65
2021/11/28 07:20:38;;;;;;;62.80;29.57;;;2.10;99.90;;;;;;4306797;33;20173;-65
2021/11/28 07:23:05;;;;;;;63.93;30.23;;;2.10;99.90;;;;;;4306589;33;20260;-66
2021/11/28 07:25:32;;;;;;;56.60;27.73;;;2.00;99.90;;;;;;4320221;33;20137;-65
2021/11/28 07:28:01;;;;;;;62.17;29.40;;;2.00;99.90;;;;;;4305100;33;20207;-65
2021/11/28 07:30:30;;;;;;;61.87;28.27;;;2.00;99.90;;;;;;4306913;33;20224;-66
2021/11/28 07:32:57;;;;;;;61.47;29.03;;;2.10;99.90;;;;;;4319229;33;20160;-65
2021/11/28 07:35:24;;;;;;;62.53;28.97;;;2.10;99.90;;;;;;4305379;33;20212;-65
2021/11/28 07:37:52;;;;;;;60.10;28.67;;;2.10;99.90;;;;;;4306821;33;20193;-65
2021/11/28 07:40:19;;;;;;;61.23;28.93;;;2.10;99.90;;;;;;4306744;33;20169;-65
2021/11/28 07:42:46;;;;;;;60.70;29.93;;;2.10;99.90;;;;;;4305733;33;20215;-64
2021/11/28 07:45:13;;;;;;;59.83;28.40;;;2.10;99.90;;;;;;4305552;33;20227;-65
2021/11/28 07:47:40;;;;;;;64.43;30.07;;;2.10;99.90;;;;;;4305928;33;20185;-65
2021/11/28 07:50:09;;;;;;;61.47;29.47;;;2.20;99.90;;;;;;4305358;33;20414;-65
2021/11/28 07:52:37;;;;;;;62.60;29.00;;;2.20;99.90;;;;;;4305387;33;20188;-65
2021/11/28 07:55:06;;;;;;;64.93;30.23;;;2.30;99.90;;;;;;4319819;33;20145;-65
2021/11/28 07:57:33;;;;;;;61.27;29.10;;;2.30;99.90;;;;;;4305227;33;20254;-65
2021/11/28 08:00:00;;;;;;;61.67;29.73;;;2.40;99.90;;;;;;4306479;33;20410;-65
2021/11/28 08:02:27;;;;;;;56.37;28.73;;;2.40;99.90;;;;;;4305050;33;20181;-65
2021/11/28 08:04:54;;;;;;;60.57;28.73;;;2.40;99.90;;;;;;4307418;33;20169;-65
2021/11/28 08:07:21;;;;;;;64.30;30.13;;;2.50;99.90;;;;;;4308573;33;20177;-65
2021/11/28 08:09:48;;;;;;;58.43;29.03;;;2.50;99.90;;;;;;4307761;33;20173;-65
2021/11/28 08:12:16;;;;;;;62.83;29.83;;;2.60;99.90;;;;;;4307442;33;20586;-65
2021/11/28 08:14:43;;;;;;;58.17;28.63;;;2.70;99.90;;;;;;4310463;33;20188;-65
2021/11/28 08:17:11;;;;;;;59.47;28.67;;;2.70;99.90;;;;;;4314812;33;20185;-65
2021/11/28 08:19:40;;;;;;;58.13;29.83;;;2.80;99.90;;;;;;4320099;33;20254;-65
2021/11/28 08:22:07;;;;;;;65.07;31.13;;;2.80;99.90;;;;;;4321211;33;20216;-65
2021/11/28 08:24:35;;;;;;;68.03;30.47;;;2.90;99.90;;;;;;4319501;33;20185;-65
2021/11/28 08:27:02;;;;;;;63.30;31.13;;;2.90;99.90;;;;;;4321920;33;20180;-65
2021/11/28 08:29:30;;;;;;;65.83;30.50;;;3.00;99.90;;;;;;4320924;33;20178;-65
2021/11/28 08:31:57;;;;;;;62.37;29.23;;;3.00;99.90;;;;;;4321247;33;20400;-65
2021/11/28 08:34:24;;;;;;;61.43;29.80;;;3.00;99.90;;;;;;4321065;33;20200;-65
2021/11/28 08:36:52;;;;;;;65.17;31.27;;;3.10;99.90;;;;;;4321078;33;20166;-65
2021/11/28 08:39:19;;;;;;;61.73;30.37;;;3.10;99.90;;;;;;4320337;33;20173;-65
2021/11/28 08:41:46;;;;;;;62.60;31.27;;;3.20;99.90;;;;;;4320617;33;20238;-65
2021/11/28 08:44:13;;;;;;;64.63;31.30;;;3.20;99.90;;;;;;4319359;33;20550;-66
2021/11/28 08:46:40;;;;;;;68.27;30.93;;;3.30;99.90;;;;;;4307456;33;20400;-65
2021/11/28 08:49:08;;;;;;;63.53;30.47;;;3.30;99.90;;;;;;4319390;33;20177;-65
2021/11/28 08:51:35;;;;;;;68.40;30.80;;;3.40;99.90;;;;;;4321052;33;20290;-65
2021/11/28 08:54:03;;;;;;;64.57;30.80;;;3.40;99.90;;;;;;4319714;33;20180;-65
2021/11/28 08:56:30;;;;;;;63.57;30.10;;;3.40;99.90;;;;;;4322152;33;20527;-65
2021/11/28 08:58:57;;;;;;;64.00;30.57;;;3.40;99.90;;;;;;4319135;33;20543;-65
2021/11/28 09:01:24;;;;;;;65.67;30.70;;;3.50;99.90;;;;;;4319281;33;20256;-65
2021/11/28 09:03:52;;;;;;;64.37;30.63;;;3.50;99.90;;;;;;4320862;33;20711;-65
2021/11/28 09:06:19;;;;;;;62.37;29.73;;;3.40;99.90;;;;;;4318859;33;20216;-65
2021/11/28 09:08:46;;;;;;;63.13;30.20;;;3.50;99.90;;;;;;4319112;33;20174;-65
2021/11/28 09:11:14;;;;;;;59.37;30.37;;;3.40;99.90;;;;;;4318412;33;20547;-65
2021/11/28 09:13:41;;;;;;;65.67;30.20;;;3.40;99.90;;;;;;4307602;33;20252;-65
2021/11/28 09:16:11;;;;;;;63.40;29.87;;;3.40;99.90;;;;;;4309004;33;20188;-66
2021/11/28 09:18:47;;;;;;;76.07;32.27;;;3.40;99.90;;;;;;4307130;33;20165;-65
2021/11/28 09:21:17;;;;;;;78.23;32.50;;;3.50;99.90;;;;;;4307470;33;20170;-65
2021/11/28 09:26:31;;;;;;;66.57;30.80;;;3.50;99.90;;;;;;4306508;33;20237;-65
2021/11/28 09:29:00;;;;;;;61.37;30.77;;;3.40;99.90;;;;;;4306273;33;20193;-65
2021/11/28 09:31:30;;;;;;;82.13;33.83;;;3.50;99.90;;;;;;4320809;33;20146;-64
2021/11/28 09:33:58;;;;;;;68.97;32.17;;;3.50;99.90;;;;;;4306752;33;20519;-65
2021/11/28 09:36:27;;;;;;;63.10;31.70;;;3.60;99.90;;;;;;4306882;33;20172;-65
2021/11/28 09:38:55;;;;;;;65.77;31.20;;;3.60;99.90;;;;;;4320504;33;20153;-65
2021/11/28 09:41:25;;;;;;;84.20;36.13;;;3.60;99.90;;;;;;4308213;33;20199;-65
2021/11/28 09:43:57;;;;;;;66.57;31.57;;;3.60;99.90;;;;;;4307165;33;20520;-65
2021/11/28 09:46:25;;;;;;;72.40;32.20;;;3.60;99.90;;;;;;4319185;33;20398;-65
2021/11/28 09:48:59;;;;;;;69.30;32.10;;;3.50;99.90;;;;;;4319914;33;20264;-65
2021/11/28 09:51:27;;;;;;;66.00;31.27;;;3.70;99.90;;;;;;4335482;33;20246;-65
2021/11/28 09:54:00;;;;;;;64.37;30.80;;;3.70;99.90;;;;;;4334815;33;20458;-65
2021/11/28 09:56:28;;;;;;;58.80;29.70;;;3.70;99.90;;;;;;4332892;33;20232;-65
2021/11/28 09:58:55;;;;;;;64.73;30.73;;;3.70;99.90;;;;;;4332682;33;20216;-65
2021/11/28 10:01:23;;;;;;;65.07;30.90;;;3.70;99.90;;;;;;4332786;33;20204;-65
2021/11/28 10:03:51;;;;;;;62.77;31.17;;;3.70;99.90;;;;;;4332494;33;20188;-65
2021/11/28 10:06:19;;;;;;;59.97;30.10;;;3.80;99.90;;;;;;4334866;33;20150;-65
2021/11/28 10:08:47;;;;;;;67.83;31.67;;;3.90;99.90;;;;;;4334435;33;20199;-65
2021/11/28 10:11:17;;;;;;;69.57;32.53;;;3.90;99.90;;;;;;4333183;33;20177;-65
2021/11/28 10:13:50;;;;;;;62.47;29.90;;;4.10;99.90;;;;;;4333799;33;20256;-65
2021/11/28 10:16:18;;;;;;;63.20;31.07;;;4.30;99.90;;;;;;4334010;33;20193;-65
2021/11/28 10:18:47;;;;;;;63.07;30.87;;;4.50;99.90;;;;;;4334203;33;20224;-65
2021/11/28 10:21:14;;;;;;;60.90;30.03;;;4.60;99.90;;;;;;4333115;33;20169;-65
2021/11/28 10:24:06;;;;;;;58.93;29.63;;;4.80;99.90;;;;;;4334992;33;20149;-65
2021/11/28 10:26:53;;;;;;;58.53;29.23;;;5.00;99.90;;;;;;4332273;33;20182;-65
2021/11/28 10:29:21;;;;;;;58.53;29.57;;;5.10;99.90;;;;;;4334524;33;20184;-65
2021/11/28 10:31:55;;;;;;;58.20;29.00;;;5.20;99.90;;;;;;4333728;33;20189;-65
2021/11/28 10:34:30;;;;;;;56.40;29.13;;;5.30;99.90;;;;;;4322136;33;20183;-65
2021/11/28 10:37:20;;;;;;;60.40;29.57;;;5.30;99.90;;;;;;4332748;33;20189;-65
2021/11/28 10:39:54;;;;;;;56.23;27.70;;;5.50;99.90;;;;;;4331747;33;20279;-65
2021/11/28 10:42:23;;;;;;;58.70;28.53;;;5.70;99.90;;;;;;4320417;33;20212;-66
2021/11/28 10:45:10;;;;;;;57.63;28.83;;;5.80;99.90;;;;;;4305252;33;20204;-65
2021/11/28 10:47:43;;;;;;;56.50;29.27;;;5.90;99.90;;;;;;4305812;33;20206;-65
2021/11/28 10:50:32;;;;;;;56.07;28.60;;;6.00;99.90;;;;;;4305812;33;20196;-65
2021/11/28 10:53:06;;;;;;;48.73;26.73;;;6.20;99.90;;;;;;4306192;33;20510;-65
2021/11/28 10:55:45;;;;;;;52.17;26.83;;;6.30;99.90;;;;;;4307257;33;20227;-65
2021/11/28 10:58:20;;;;;;;51.47;27.50;;;6.40;99.90;;;;;;4305141;33;20195;-65
2021/11/28 11:00:50;;;;;;;51.27;26.07;;;6.40;99.90;;;;;;4318760;33;20192;-65
2021/11/28 11:03:29;;;;;;;48.57;25.97;;;6.50;99.90;;;;;;4307299;33;20219;-65
2021/11/28 11:06:17;;;;;;;50.27;25.80;;;6.60;99.90;;;;;;4305282;33;20212;-65
2021/11/28 11:08:45;;;;;;;46.63;24.37;;;6.70;99.90;;;;;;4305733;33;20240;-65
2021/11/28 11:11:15;;;;;;;44.40;23.60;;;6.90;99.90;;;;;;4304875;33;20535;-65
2021/11/28 11:13:55;;;;;;;45.73;24.00;;;7.00;99.90;;;;;;4306058;33;20180;-65
2021/11/28 11:16:43;;;;;;;42.67;22.70;;;7.10;99.90;;;;;;4306870;33;20182;-65
2021/11/28 11:19:44;;;;;;;41.27;22.13;;;7.20;99.90;;;;;;4305066;33;20198;-65
2021/11/28 11:22:31;;;;;;;46.30;23.47;;;7.10;99.90;;;;;;4305159;33;20176;-65
2021/11/28 11:25:01;;;;;;;48.10;23.87;;;7.10;99.90;;;;;;4305662;33;20523;-65
2021/11/28 11:27:40;;;;;;;44.70;22.87;;;7.10;99.90;;;;;;4304679;33;20191;-64
2021/11/28 11:30:18;;;;;;;46.03;23.20;;;7.30;99.90;;;;;;4303777;33;20214;-65
2021/11/28 11:33:01;;;;;;;43.27;23.07;;;7.70;99.90;;;;;;4305099;33;20285;-65
2021/11/28 11:35:40;;;;;;;45.07;24.30;;;8.00;99.90;;;;;;4302791;33;20225;-65
2021/11/28 11:38:12;;;;;;;46.37;23.63;;;8.40;99.90;;;;;;4304229;33;20676;-65
2021/11/28 11:40:40;;;;;;;43.70;23.70;;;8.60;99.90;;;;;;4305934;33;20542;-65
2021/11/28 11:43:09;;;;;;;44.70;23.90;;;8.70;99.90;;;;;;4305483;33;20177;-65
2021/11/28 11:45:37;;;;;;;43.33;23.17;;;8.60;99.90;;;;;;4305418;33;20593;-65
2021/11/28 11:48:06;;;;;;;46.43;24.13;;;8.60;99.90;;;;;;4305638;33;20166;-64
2021/11/28 11:50:35;;;;;;;46.30;23.93;;;8.90;99.90;;;;;;4305816;33;20173;-65
2021/11/28 11:53:06;;;;;;;46.53;23.87;;;8.80;99.90;;;;;;4305365;33;20181;-64
2021/11/28 11:55:39;;;;;;;48.57;24.73;;;8.60;99.90;;;;;;4306346;33;20175;-65
2021/11/28 11:58:38;;;;;;;45.80;24.47;;;8.50;99.90;;;;;;4305269;33;20219;-65
2021/11/28 12:01:15;;;;;;;46.33;25.07;;;8.50;99.90;;;;;;4317351;33;20199;-65
2021/11/28 12:03:50;;;;;;;46.93;23.70;;;8.50;99.90;;;;;;4307852;33;20146;-65
2021/11/28 12:06:18;;;;;;;45.57;24.80;;;8.40;99.90;;;;;;4307931;33;20405;-64
2021/11/28 12:08:51;;;;;;;45.90;23.40;;;8.20;99.90;;;;;;4308535;33;20387;-65
2021/11/28 12:11:22;;;;;;;47.20;23.63;;;8.20;99.90;;;;;;4304978;33;20534;-65
2021/11/28 12:13:54;;;;;;;45.40;24.20;;;8.20;99.90;;;;;;4305807;33;20177;-65
2021/11/28 12:16:32;;;;;;;46.50;24.77;;;8.10;99.90;;;;;;4305347;33;20205;-65
2021/11/28 12:18:59;;;;;;;44.67;23.37;;;8.00;99.90;;;;;;4305591;33;20216;-65
2021/11/28 12:21:32;;;;;;;47.57;24.60;;;7.90;99.90;;;;;;4306730;33;20197;-65
2021/11/28 12:24:03;;;;;;;45.37;23.47;;;7.80;99.90;;;;;;4306762;33;20227;-65
2021/11/28 12:26:31;;;;;;;45.83;24.73;;;7.60;99.90;;;;;;4306453;33;20207;-65
2021/11/28 12:29:18;;;;;;;50.27;25.47;;;7.50;99.90;;;;;;4305307;33;20215;-66
2021/11/28 12:31:47;;;;;;;47.17;25.27;;;7.50;99.90;;;;;;4306729;33;20217;-65
2021/11/28 12:34:18;;;;;;;46.87;24.50;;;7.30;99.90;;;;;;4305867;33;20192;-65
2021/11/28 12:36:58;;;;;;;50.17;24.93;;;7.30;99.90;;;;;;4306169;33;20169;-65
2021/11/28 12:39:26;;;;;;;47.87;25.00;;;7.30;99.90;;;;;;4306209;33;20167;-65
2021/11/28 12:41:56;;;;;;;49.90;25.00;;;7.20;99.90;;;;;;4305159;33;20167;-65
2021/11/28 12:44:29;;;;;;;46.63;25.03;;;7.20;99.90;;;;;;4305129;33;20191;-65
2021/11/28 12:46:59;;;;;;;48.47;25.73;;;7.20;99.90;;;;;;4306849;33;20188;-65
2021/11/28 12:49:32;;;;;;;46.47;24.60;;;7.10;99.90;;;;;;4304541;33;20254;-65
2021/11/28 12:52:25;;;;;;;47.83;25.30;;;7.00;99.90;;;;;;4306068;33;20214;-65
2021/11/28 12:55:05;;;;;;;47.83;25.67;;;7.00;99.90;;;;;;4306373;33;20183;-65
2021/11/28 12:57:43;;;;;;;52.17;27.00;;;6.90;99.90;;;;;;4306494;33;20517;-65
2021/11/28 13:00:23;;;;;;;49.70;25.83;;;6.80;99.90;;;;;;4304679;33;20285;-65
2021/11/28 13:03:17;;;;;;;46.53;25.27;;;6.70;99.90;;;;;;4306140;33;20181;-65